createdAt,value
2023-01-29T00:02:13.940Z,98223.84
2023-01-29T00:04:40.680Z,98217.56
2023-01-29T00:07:07.336Z,98221.13
2023-01-29T00:09:34.184Z,98228.06
2023-01-29T00:12:00.845Z,98233.31
2023-01-29T00:14:27.734Z,98236.72
2023-01-29T00:16:54.833Z,98233.31
2023-01-29T00:19:21.599Z,98237.63
2023-01-29T00:21:48.296Z,98229.84
2023-01-29T00:24:15.267Z,98235.00
2023-01-29T00:26:43.403Z,98232.47
2023-01-29T00:29:10.660Z,98226.38
2023-01-29T00:31:37.852Z,98201.78
2023-01-29T00:34:04.695Z,98209.78
2023-01-29T00:36:31.406Z,98217.56
2023-01-29T00:39:00.778Z,98221.97
2023-01-29T00:41:51.269Z,98223.75
2023-01-29T00:44:37.529Z,98214.94
2023-01-29T00:47:05.152Z,98223.66
2023-01-29T00:49:31.910Z,98229.00
2023-01-29T00:52:17.122Z,98226.47
2023-01-29T00:54:43.887Z,98210.81
2023-01-29T00:57:10.659Z,98214.19
2023-01-29T00:59:37.460Z,98223.75
2023-01-29T01:02:23.787Z,98217.66
2023-01-29T01:04:50.720Z,98219.34
2023-01-29T01:07:17.406Z,98225.53
2023-01-29T01:10:03.030Z,98216.06
2023-01-29T01:12:30.211Z,98217.75
2023-01-29T01:14:56.898Z,98203.66
2023-01-29T01:17:23.778Z,98204.59
2023-01-29T01:19:50.737Z,98208.06
2023-01-29T01:22:17.656Z,98202.91
2023-01-29T01:24:44.496Z,98212.50
2023-01-29T01:27:11.285Z,98203.66
2023-01-29T01:29:38.353Z,98194.09
2023-01-29T01:32:06.070Z,98201.97
2023-01-29T01:34:32.864Z,98202.06
2023-01-29T01:37:00.784Z,98191.47
2023-01-29T01:39:27.811Z,98191.56
2023-01-29T01:41:54.914Z,98198.59
2023-01-29T01:45:01.457Z,98203.66
2023-01-29T01:47:43.187Z,98200.19
2023-01-29T01:50:17.425Z,98194.00
2023-01-29T01:52:53.170Z,98187.06
2023-01-29T01:55:23.556Z,98188.00
2023-01-29T01:57:55.913Z,98187.16
2023-01-29T02:00:26.127Z,98186.31
2023-01-29T02:03:11.791Z,98180.13
2023-01-29T02:05:58.500Z,98188.09
2023-01-29T02:08:56.567Z,98183.78
2023-01-29T02:11:24.269Z,98179.38
2023-01-29T02:13:53.866Z,98180.22
2023-01-29T02:16:23.735Z,98181.06
2023-01-29T02:18:51.397Z,98186.41
2023-01-29T02:21:54.912Z,98192.50
2023-01-29T02:24:48.882Z,98183.78
2023-01-29T02:27:20.153Z,98191.75
2023-01-29T02:30:03.019Z,98196.91
2023-01-29T02:32:54.857Z,98195.22
2023-01-29T02:35:30.798Z,98189.97
2023-01-29T02:38:10.975Z,98198.69
2023-01-29T02:40:52.584Z,98207.41
2023-01-29T02:43:43.848Z,98196.91
2023-01-29T02:46:24.652Z,98205.72
2023-01-29T02:49:01.913Z,98210.16
2023-01-29T02:51:42.444Z,98204.97
2023-01-29T02:54:23.178Z,98196.91
2023-01-29T02:56:59.515Z,98197.94
2023-01-29T02:59:35.802Z,98202.34
2023-01-29T03:02:12.137Z,98204.88
2023-01-29T03:04:46.613Z,98207.59
2023-01-29T03:07:40.741Z,98204.03
2023-01-29T03:10:22.045Z,98210.16
2023-01-29T03:13:00.329Z,98195.31
2023-01-29T03:15:38.808Z,98205.06
2023-01-29T03:18:11.573Z,98197.09
2023-01-29T03:20:48.353Z,98189.22
2023-01-29T03:23:27.226Z,98192.78
2023-01-29T03:26:17.944Z,98186.78
2023-01-29T03:29:05.040Z,98190.25
2023-01-29T03:31:52.125Z,98183.13
2023-01-29T03:34:35.327Z,98185.75
2023-01-29T03:37:08.967Z,98192.97
2023-01-29T03:39:37.135Z,98185.94
2023-01-29T03:42:22.406Z,98204.22
2023-01-29T03:45:00.700Z,98199.91
2023-01-29T03:47:34.843Z,98184.06
2023-01-29T03:50:24.068Z,98191.09
2023-01-29T03:53:08.651Z,98189.41
2023-01-29T03:55:35.364Z,98202.53
2023-01-29T03:58:08.616Z,98199.91
2023-01-29T04:00:41.789Z,98203.47
2023-01-29T04:03:11.418Z,98199.25
2023-01-29T04:05:51.647Z,98204.41
2023-01-29T04:08:27.424Z,98205.25
2023-01-29T04:10:59.118Z,98208.72
2023-01-29T04:13:27.699Z,98214.09
2023-01-29T04:15:58.215Z,98217.56
2023-01-29T04:18:25.491Z,98216.63
2023-01-29T04:20:53.491Z,98202.72
2023-01-29T04:23:23.425Z,98213.22
2023-01-29T04:26:18.114Z,98214.94
2023-01-29T04:29:09.885Z,98209.66
2023-01-29T04:31:57.533Z,98210.59
2023-01-29T04:34:29.173Z,98207.78
2023-01-29T04:37:23.363Z,98212.31
2023-01-29T04:40:00.273Z,98215.03
2023-01-29T04:42:59.527Z,98220.19
2023-01-29T04:45:39.620Z,98215.88
2023-01-29T04:48:30.321Z,98217.56
2023-01-29T04:51:06.926Z,98212.38
2023-01-29T04:53:46.257Z,98210.59
2023-01-29T04:56:45.131Z,98220.28
2023-01-29T04:59:17.664Z,98221.22
2023-01-29T05:01:45.122Z,98224.69
2023-01-29T05:04:14.669Z,98230.78
2023-01-29T05:06:42.301Z,98228.16
2023-01-29T05:09:10.027Z,98216.13
2023-01-29T05:11:37.781Z,98214.25
2023-01-29T05:14:10.077Z,98223.94
2023-01-29T05:16:43.828Z,98226.56
2023-01-29T05:19:13.559Z,98214.34
2023-01-29T05:21:43.445Z,98224.97
2023-01-29T05:24:21.893Z,98213.50
2023-01-29T05:27:09.845Z,98206.47
2023-01-29T05:29:36.579Z,98199.53
2023-01-29T05:32:04.161Z,98192.59
2023-01-29T05:34:30.801Z,98212.75
2023-01-29T05:36:57.471Z,98207.50
2023-01-29T05:39:24.223Z,98204.13
2023-01-29T05:41:50.877Z,98204.97
2023-01-29T05:44:17.652Z,98199.91
2023-01-29T05:46:45.234Z,98201.59
2023-01-29T05:49:13.027Z,98198.22
2023-01-29T05:51:39.703Z,98201.69
2023-01-29T05:54:06.452Z,98195.69
2023-01-29T05:56:33.536Z,98196.72
2023-01-29T05:59:00.264Z,98196.72
2023-01-29T06:01:26.951Z,98208.91
2023-01-29T06:03:53.677Z,98213.31
2023-01-29T06:06:20.360Z,98216.03
2023-01-29T06:08:47.059Z,98213.41
2023-01-29T06:11:18.442Z,98212.38
2023-01-29T06:13:46.125Z,98204.69
2023-01-29T06:16:13.832Z,98203.84
2023-01-29T06:18:41.433Z,98203.84
2023-01-29T06:21:11.487Z,98212.56
2023-01-29T06:23:38.458Z,98190.72
2023-01-29T06:26:13.132Z,98188.16
2023-01-29T06:28:40.302Z,98196.06
2023-01-29T06:31:26.558Z,98191.66
2023-01-29T06:33:54.195Z,98187.31
2023-01-29T06:36:21.799Z,98183.00
2023-01-29T06:38:48.886Z,98176.06
2023-01-29T06:41:19.013Z,98161.16
2023-01-29T06:43:45.970Z,98163.69
2023-01-29T06:46:13.078Z,98168.09
2023-01-29T06:48:39.763Z,98164.63
2023-01-29T06:51:08.340Z,98173.44
2023-01-29T06:53:35.926Z,98167.25
2023-01-29T06:56:03.844Z,98175.13
2023-01-29T06:58:30.589Z,98175.13
2023-01-29T07:01:05.536Z,98185.63
2023-01-29T07:03:32.801Z,98184.78
2023-01-29T07:05:59.819Z,98183.94
2023-01-29T07:08:26.705Z,98191.81
2023-01-29T07:10:53.396Z,98194.44
2023-01-29T07:13:20.660Z,98197.09
2023-01-29T07:15:47.439Z,98203.19
2023-01-29T07:18:14.263Z,98206.84
2023-01-29T07:20:42.285Z,98216.41
2023-01-29T07:23:13.783Z,98221.66
2023-01-29T07:25:41.671Z,98220.91
2023-01-29T07:28:08.637Z,98226.91
2023-01-29T07:30:35.987Z,98221.75
2023-01-29T07:33:07.560Z,98214.81
2023-01-29T07:35:41.954Z,98213.97
2023-01-29T07:38:11.040Z,98205.16
2023-01-29T07:40:38.427Z,98197.38
2023-01-29T07:43:07.079Z,98199.16
2023-01-29T07:45:35.715Z,98200.94
2023-01-29T07:48:05.178Z,98210.59
2023-01-29T07:50:34.327Z,98221.03
2023-01-29T07:53:01.793Z,98221.84
2023-01-29T07:55:28.645Z,98218.41
2023-01-29T07:58:01.547Z,98217.63
2023-01-29T08:00:29.894Z,98215.84
2023-01-29T08:03:16.312Z,98220.19
2023-01-29T08:05:44.375Z,98226.28
2023-01-29T08:08:11.613Z,98225.44
2023-01-29T08:10:40.084Z,98221.13
2023-01-29T08:13:10.225Z,98224.66
2023-01-29T08:15:39.213Z,98227.22
2023-01-29T08:18:06.286Z,98233.31
2023-01-29T08:20:33.760Z,98233.41
2023-01-29T08:23:10.516Z,98242.97
2023-01-29T08:25:37.439Z,98257.78
2023-01-29T08:28:04.766Z,98251.56
2023-01-29T08:30:33.802Z,98263.03
2023-01-29T08:33:00.956Z,98263.03
2023-01-29T08:35:28.132Z,98252.53
2023-01-29T08:38:02.182Z,98248.31
2023-01-29T08:40:32.110Z,98245.59
2023-01-29T08:43:06.268Z,98252.53
2023-01-29T08:45:37.083Z,98258.59
2023-01-29T08:48:04.555Z,98261.13
2023-01-29T08:50:32.591Z,98261.22
2023-01-29T08:53:01.568Z,98263.84
2023-01-29T08:55:29.561Z,98271.72
2023-01-29T08:57:59.291Z,98274.34
2023-01-29T09:00:26.672Z,98271.84
2023-01-29T09:02:53.619Z,98269.31
2023-01-29T09:05:23.973Z,98269.22
2023-01-29T09:07:52.683Z,98277.94
2023-01-29T09:10:20.427Z,98279.72
2023-01-29T09:12:50.765Z,98291.06
2023-01-29T09:15:18.014Z,98290.22
2023-01-29T09:17:45.524Z,98295.56
2023-01-29T09:20:15.074Z,98290.31
2023-01-29T09:22:42.603Z,98290.41
2023-01-29T09:25:09.869Z,98290.22
2023-01-29T09:27:37.243Z,98291.06
2023-01-29T09:30:06.205Z,98289.38
2023-01-29T09:32:53.613Z,98284.03
2023-01-29T09:35:24.061Z,98283.19
2023-01-29T09:37:52.125Z,98285.91
2023-01-29T09:40:34.069Z,98287.47
2023-01-29T09:43:11.532Z,98280.38
2023-01-29T09:45:46.103Z,98282.81
2023-01-29T09:48:13.519Z,98281.88
2023-01-29T09:50:47.279Z,98277.56
2023-01-29T09:53:46.768Z,98280.19
2023-01-29T09:56:22.015Z,98280.19
2023-01-29T09:58:48.858Z,98266.22
2023-01-29T10:01:28.052Z,98272.41
2023-01-29T10:04:06.975Z,98258.31
2023-01-29T10:06:51.614Z,98259.84
2023-01-29T10:09:33.474Z,98265.19
2023-01-29T10:12:09.322Z,98256.53
2023-01-29T10:15:00.755Z,98246.72
2023-01-29T10:17:43.091Z,98251.03
2023-01-29T10:20:15.901Z,98253.34
2023-01-29T10:23:04.417Z,98248.09
2023-01-29T10:25:35.796Z,98246.03
2023-01-29T10:28:02.615Z,98235.44
2023-01-29T10:30:35.265Z,98232.47
2023-01-29T10:33:05.281Z,98238.16
2023-01-29T10:35:37.742Z,98232.72
2023-01-29T10:38:21.561Z,98224.66
2023-01-29T10:41:03.552Z,98221.09
2023-01-29T10:43:47.017Z,98221.84
2023-01-29T10:46:43.315Z,98219.50
2023-01-29T10:49:22.101Z,98226.81
2023-01-29T10:52:16.954Z,98220.81
2023-01-29T10:54:52.623Z,98216.41
2023-01-29T10:57:29.331Z,98205.06
2023-01-29T11:00:13.602Z,98214.53
2023-01-29T11:02:50.592Z,98204.88
2023-01-29T11:05:26.795Z,98203.84
2023-01-29T11:08:07.549Z,98191.56
2023-01-29T11:10:42.275Z,98186.38
2023-01-29T11:13:18.012Z,98181.97
2023-01-29T11:15:45.039Z,98177.66
2023-01-29T11:18:15.821Z,98177.75
2023-01-29T11:20:45.106Z,98182.06
2023-01-29T11:23:32.459Z,98179.09
2023-01-29T11:26:06.331Z,98178.75
2023-01-29T11:28:50.577Z,98169.47
2023-01-29T11:31:27.302Z,98172.28
2023-01-29T11:34:58.428Z,98173.03
2023-01-29T11:37:38.855Z,98162.06
2023-01-29T11:40:42.583Z,98172.75
2023-01-29T11:43:14.263Z,98174.41
2023-01-29T11:45:41.206Z,98178.63
2023-01-29T11:48:15.410Z,98176.94
2023-01-29T11:50:42.873Z,98174.00
2023-01-29T11:56:48.513Z,98159.72
2023-01-29T11:59:44.497Z,98153.03
2023-01-29T12:02:37.372Z,98143.97
2023-01-29T12:05:32.344Z,98140.97
2023-01-29T12:08:03.039Z,98118.31
2023-01-29T12:10:30.135Z,98133.97
2023-01-29T12:13:36.572Z,98130.50
2023-01-29T12:16:51.640Z,98118.84
2023-01-29T12:19:41.202Z,98113.41
2023-01-29T12:22:35.807Z,98121.19
2023-01-29T12:25:12.163Z,98110.25
2023-01-29T12:27:56.343Z,98102.09
2023-01-29T12:30:42.446Z,98085.28
2023-01-29T12:33:12.039Z,98078.56
2023-01-29T12:35:49.399Z,98073.97
2023-01-29T12:38:20.663Z,98074.50
2023-01-29T12:40:53.629Z,98068.31
2023-01-29T12:43:33.642Z,98060.56
2023-01-29T12:46:02.359Z,98057.56
2023-01-29T12:48:34.858Z,98069.66
2023-01-29T12:51:25.844Z,98070.28
2023-01-29T12:54:10.641Z,98062.06
2023-01-29T12:56:47.622Z,98070.69
2023-01-29T12:59:28.927Z,98072.56
2023-01-29T13:02:29.320Z,98067.88
2023-01-29T13:05:11.071Z,98059.25
2023-01-29T13:08:06.032Z,98061.94
2023-01-29T13:10:38.846Z,98062.81
2023-01-29T13:13:21.455Z,98051.84
2023-01-29T13:15:52.986Z,98054.28
2023-01-29T13:18:37.251Z,98049.13
2023-01-29T13:21:05.917Z,98043.13
2023-01-29T13:23:51.229Z,98045.81
2023-01-29T13:26:22.646Z,98044.03
2023-01-29T13:28:51.841Z,98047.22
2023-01-29T13:31:24.558Z,98048.63
2023-01-29T13:34:08.156Z,98049.88
2023-01-29T13:39:48.841Z,98042.00
2023-01-29T13:42:22.312Z,98039.59
2023-01-29T13:45:01.134Z,98038.03
2023-01-29T13:47:31.601Z,98033.72
2023-01-29T13:51:34.251Z,98025.94
2023-01-29T13:54:43.423Z,98024.75
2023-01-29T13:57:42.538Z,98027.72
2023-01-29T14:00:35.743Z,98024.88
2023-01-29T14:03:05.370Z,98021.31
2023-01-29T14:05:32.331Z,98028.34
2023-01-29T14:08:14.451Z,98035.28
2023-01-29T14:10:43.569Z,98037.31
2023-01-29T14:13:19.497Z,98044.13
2023-01-29T14:15:59.137Z,98050.34
2023-01-29T14:18:28.341Z,98061.56
2023-01-29T14:21:06.063Z,98066.09
2023-01-29T14:24:10.033Z,98059.16
2023-01-29T14:26:44.026Z,98046.47
2023-01-29T14:29:34.192Z,98037.66
2023-01-29T14:32:19.640Z,98035.22
2023-01-29T14:35:30.832Z,98015.16
2023-01-29T14:38:13.322Z,98025.66
2023-01-29T14:40:47.114Z,98038.44
2023-01-29T14:43:21.953Z,98023.53
2023-01-29T14:45:52.013Z,98021.94
2023-01-29T14:48:39.580Z,98026.78
2023-01-29T14:51:13.708Z,98030.75
2023-01-29T14:53:56.339Z,98030.34
2023-01-29T14:57:00.157Z,98026.91
2023-01-29T14:59:35.093Z,98028.69
2023-01-29T15:02:13.042Z,98031.22
2023-01-29T15:04:49.134Z,98029.63
2023-01-29T15:07:28.526Z,98024.38
2023-01-29T15:10:21.873Z,98022.47
2023-01-29T15:13:08.323Z,97998.84
2023-01-29T15:15:46.852Z,98005.78
2023-01-29T15:18:17.705Z,98004.09
2023-01-29T15:20:51.039Z,98000.53
2023-01-29T15:23:29.539Z,97993.78
2023-01-29T15:26:27.192Z,97992.31
2023-01-29T15:29:04.304Z,97997.16
2023-01-29T15:31:32.932Z,98007.13
2023-01-29T15:34:06.617Z,98007.22
2023-01-29T15:36:34.186Z,98014.06
2023-01-29T15:39:16.276Z,98007.66
2023-01-29T15:41:46.426Z,97997.34
2023-01-29T15:47:16.622Z,97988.91
2023-01-29T15:49:46.899Z,97978.88
2023-01-29T15:52:31.206Z,97999.69
2023-01-29T15:55:04.630Z,97981.22
2023-01-29T15:57:37.825Z,97983.38
2023-01-29T16:00:23.390Z,97990.88
2023-01-29T16:02:50.666Z,97985.81
2023-01-29T16:05:29.697Z,97983.28
2023-01-29T16:08:02.291Z,97985.91
2023-01-29T16:10:51.630Z,97976.44
2023-01-29T16:13:27.519Z,97984.78
2023-01-29T16:16:26.712Z,97988.34
2023-01-29T16:19:00.453Z,97984.78
2023-01-29T16:21:37.416Z,97984.59
2023-01-29T16:24:14.538Z,97976.34
2023-01-29T16:26:50.680Z,97985.44
2023-01-29T16:29:26.880Z,97977.09
2023-01-29T16:32:02.184Z,97988.84
2023-01-29T16:34:47.891Z,97986.47
2023-01-29T16:37:31.295Z,97979.53
2023-01-29T16:40:12.916Z,97982.91
2023-01-29T16:42:41.991Z,97991.47
2023-01-29T16:45:33.472Z,97990.69
2023-01-29T16:48:53.256Z,98005.53
2023-01-29T16:51:45.594Z,98000.28
2023-01-29T16:54:22.494Z,98002.97
2023-01-29T16:57:09.050Z,97996.78
2023-01-29T17:00:03.962Z,98000.28
2023-01-29T17:02:42.476Z,97989.09
2023-01-29T17:05:24.107Z,97993.69
2023-01-29T17:08:09.167Z,97998.75
2023-01-29T17:10:56.971Z,98005.59
2023-01-29T17:13:38.075Z,98007.47
2023-01-29T17:19:31.716Z,98002.50
2023-01-29T17:22:07.903Z,98021.53
2023-01-29T17:24:36.109Z,98012.53
2023-01-29T17:27:08.863Z,98020.41
2023-01-29T17:29:59.479Z,98016.28
2023-01-29T17:32:44.601Z,98022.56
2023-01-29T17:35:18.388Z,98022.47
2023-01-29T17:38:47.260Z,98014.50
2023-01-29T17:41:30.985Z,98015.25
2023-01-29T17:44:11.326Z,98012.06
2023-01-29T17:46:46.457Z,98015.25
2023-01-29T17:49:47.297Z,98004.75
2023-01-29T17:52:17.143Z,98002.91
2023-01-29T17:54:44.248Z,98008.22
2023-01-29T17:57:17.858Z,97993.78
2023-01-29T17:59:47.060Z,98008.59
2023-01-29T18:02:29.801Z,98008.41
2023-01-29T18:04:56.871Z,98012.06
2023-01-29T18:07:25.954Z,97999.22
2023-01-29T18:10:08.453Z,98008.50
2023-01-29T18:12:35.280Z,98004.09
2023-01-29T18:15:05.220Z,98016.09
2023-01-29T18:17:32.427Z,98018.16
2023-01-29T18:20:00.185Z,97989.00
2023-01-29T18:22:32.093Z,98007.28
2023-01-29T18:24:58.820Z,97998.84
2023-01-29T18:27:25.993Z,97999.22
2023-01-29T18:29:53.475Z,98001.09
2023-01-29T18:32:32.521Z,98000.72
2023-01-29T18:34:59.423Z,98010.84
2023-01-29T18:37:26.258Z,98005.31
2023-01-29T18:39:54.231Z,98006.53
2023-01-29T18:42:36.198Z,98009.16
2023-01-29T18:45:04.071Z,97998.84
2023-01-29T18:47:39.320Z,98002.13
2023-01-29T18:50:07.703Z,97991.53
2023-01-29T18:52:34.955Z,97996.13
2023-01-29T18:55:05.182Z,97978.31
2023-01-29T18:58:27.303Z,98003.16
2023-01-29T19:00:38.426Z,97993.78
2023-01-29T19:03:05.656Z,97992.00
2023-01-29T19:05:35.680Z,97985.06
2023-01-29T19:08:02.470Z,97981.78
2023-01-29T19:10:39.736Z,97980.94
2023-01-29T19:13:07.465Z,97983.28
2023-01-29T19:15:37.393Z,97975.41
2023-01-29T19:18:13.029Z,97973.34
2023-01-29T19:21:00.048Z,97981.69
2023-01-29T19:23:36.935Z,97982.72
2023-01-29T19:26:28.279Z,97979.91
2023-01-29T19:29:09.724Z,97975.50
2023-01-29T19:31:36.781Z,97985.91
2023-01-29T19:34:19.282Z,97979.34
2023-01-29T19:36:46.038Z,97987.78
2023-01-29T19:39:14.744Z,97979.34
2023-01-29T19:41:47.702Z,97984.31
2023-01-29T19:44:14.474Z,97987.97
2023-01-29T19:46:41.025Z,97984.97
2023-01-29T19:49:07.955Z,98000.16
2023-01-29T19:51:34.536Z,97995.66
2023-01-29T19:54:07.960Z,97987.03
2023-01-29T19:56:44.015Z,97984.97
2023-01-29T19:59:13.939Z,97987.41
2023-01-29T20:01:50.005Z,97981.22
2023-01-29T20:04:27.286Z,97987.59
2023-01-29T20:06:57.710Z,97989.75
2023-01-29T20:09:24.873Z,97990.78
2023-01-29T20:11:54.453Z,97989.38
2023-01-29T20:14:29.223Z,97990.41
2023-01-29T20:17:00.321Z,97987.88
2023-01-29T20:19:42.985Z,97985.53
2023-01-29T20:25:13.805Z,97991.63
2023-01-29T20:27:40.917Z,97985.19
2023-01-29T20:30:08.399Z,97990.88
2023-01-29T20:32:47.658Z,97993.97
2023-01-29T20:35:18.278Z,97983.47
2023-01-29T20:38:29.673Z,97988.25
2023-01-29T20:41:13.505Z,97979.25
2023-01-29T20:43:56.321Z,97973.25
2023-01-29T20:49:24.781Z,97962.78
2023-01-29T20:51:51.469Z,97958.00
2023-01-29T20:54:18.082Z,97964.09
2023-01-29T20:56:46.259Z,97958.56
2023-01-29T20:59:17.389Z,97948.72
2023-01-29T21:01:57.726Z,97951.16
2023-01-29T21:04:33.954Z,97954.63
2023-01-29T21:07:12.970Z,97943.28
2023-01-29T21:09:40.020Z,97945.16
2023-01-29T21:12:07.845Z,97937.38
2023-01-29T21:14:34.664Z,97941.69
2023-01-29T21:17:17.035Z,97921.53
2023-01-29T21:19:47.183Z,97922.19
2023-01-29T21:22:31.373Z,97903.66
2023-01-29T21:25:32.131Z,97918.81
2023-01-29T21:28:20.080Z,97894.06
2023-01-29T21:30:48.113Z,97908.03
2023-01-29T21:33:18.609Z,97908.03
2023-01-29T21:35:49.317Z,97905.50
2023-01-29T21:38:29.271Z,97899.41
2023-01-29T21:41:04.312Z,97894.25
2023-01-29T21:43:46.624Z,97885.25
2023-01-29T21:46:32.797Z,97895.66
2023-01-29T21:49:09.678Z,97886.84
2023-01-29T21:51:43.081Z,97886.59
2023-01-29T21:54:31.425Z,97894.44
2023-01-29T22:00:09.262Z,97899.31
2023-01-29T22:02:38.774Z,97892.69
2023-01-29T22:05:19.725Z,97891.19
2023-01-29T22:08:25.854Z,97900.25
2023-01-29T22:11:08.721Z,97895.38
2023-01-29T22:13:39.219Z,97895.78
2023-01-29T22:16:20.644Z,97900.44
2023-01-29T22:18:50.379Z,97890.88
2023-01-29T22:21:20.742Z,97901.75
2023-01-29T22:23:56.984Z,97896.50
2023-01-29T22:26:29.945Z,97899.41
2023-01-29T22:29:23.622Z,97906.06
2023-01-29T22:31:56.214Z,97904.00
2023-01-29T22:34:25.711Z,97909.44
2023-01-29T22:36:55.392Z,97905.97
2023-01-29T22:39:31.131Z,97904.47
2023-01-29T22:42:04.815Z,97891.63
2023-01-29T22:44:35.460Z,97882.91
2023-01-29T22:47:03.114Z,97884.69
2023-01-29T22:49:36.217Z,97888.81
2023-01-29T22:52:15.553Z,97888.06
2023-01-29T22:54:49.681Z,97878.31
2023-01-29T22:57:25.615Z,97881.78
2023-01-29T22:59:53.205Z,97876.53
2023-01-29T23:02:20.178Z,97879.16
2023-01-29T23:04:47.280Z,97869.78
2023-01-29T23:07:24.674Z,97869.50
2023-01-29T23:10:04.859Z,97857.53
2023-01-29T23:12:39.291Z,97848.72
2023-01-29T23:15:10.851Z,97855.44
2023-01-29T23:17:52.741Z,97835.69
2023-01-29T23:20:28.575Z,97829.78
2023-01-29T23:22:58.922Z,97820.78
2023-01-29T23:25:48.958Z,97837.16
2023-01-29T23:28:22.429Z,97819.66
2023-01-29T23:30:52.397Z,97831.19
2023-01-29T23:33:22.561Z,97822.66
2023-01-29T23:35:53.067Z,97824.69
2023-01-29T23:38:20.707Z,97817.63
2023-01-29T23:40:50.439Z,97800.28
2023-01-29T23:43:19.903Z,97807.56
2023-01-29T23:45:46.902Z,97782.66
2023-01-29T23:48:16.242Z,97792.56
2023-01-29T23:50:48.684Z,97783.91
2023-01-29T23:53:16.857Z,97786.13
2023-01-29T23:56:04.847Z,97772.06
2023-01-29T23:58:34.647Z,97741.28
